createdAt,value
2019-04-26T00:01:20.441Z,101646.48
2019-04-26T00:03:50.015Z,101654.84
2019-04-26T00:06:19.914Z,101649.75
2019-04-26T00:08:53.930Z,101648.41
2019-04-26T00:11:51.785Z,101652.14
2019-04-26T00:14:40.108Z,101646.41
2019-04-26T00:17:13.708Z,101642.33
2019-04-26T00:19:43.475Z,101641.66
2019-04-26T00:22:13.753Z,101625.50
2019-04-26T00:24:44.609Z,101639.39
2019-04-26T00:27:14.807Z,101635.38
2019-04-26T00:29:44.387Z,101641.16
2019-04-26T00:32:13.717Z,101644.61
2019-04-26T00:34:43.140Z,101642.12
2019-04-26T00:37:13.159Z,101638.33
2019-04-26T00:39:43.421Z,101633.52
2019-04-26T00:42:14.614Z,101637.27
2019-04-26T00:44:44.881Z,101634.91
2019-04-26T00:47:15.419Z,101631.55
2019-04-26T00:49:45.093Z,101634.07
2019-04-26T00:52:15.792Z,101628.92
2019-04-26T00:54:46.272Z,101618.14
2019-04-26T00:57:18.259Z,101619.38
2019-04-26T00:59:49.217Z,101619.90
2019-04-26T01:02:25.176Z,101617.78
2019-04-26T01:04:54.551Z,101606.36
2019-04-26T01:07:23.896Z,101617.13
2019-04-26T01:09:53.378Z,101616.09
2019-04-26T01:12:23.863Z,101614.80
2019-04-26T01:14:53.270Z,101612.08
2019-04-26T01:17:22.668Z,101607.59
2019-04-26T01:19:54.888Z,101607.12
2019-04-26T01:22:27.808Z,101606.41
2019-04-26T01:24:59.296Z,101606.18
2019-04-26T01:27:30.423Z,101605.12
2019-04-26T01:30:03.572Z,101601.80
2019-04-26T01:32:34.953Z,101599.61
2019-04-26T01:35:04.510Z,101598.39
2019-04-26T01:37:34.664Z,101591.94
2019-04-26T01:40:08.176Z,101594.56
2019-04-26T01:42:58.833Z,101591.33
2019-04-26T01:45:40.349Z,101587.72
2019-04-26T01:48:32.885Z,101587.73
2019-04-26T01:51:02.433Z,101589.67
2019-04-26T01:53:32.983Z,101586.55
2019-04-26T01:56:02.669Z,101582.13
2019-04-26T01:58:32.247Z,101581.11
2019-04-26T02:01:35.604Z,101576.92
2019-04-26T02:04:05.170Z,101580.06
2019-04-26T02:06:35.306Z,101569.93
2019-04-26T02:09:07.943Z,101568.05
2019-04-26T02:11:37.938Z,101562.18
2019-04-26T02:14:07.849Z,101560.19
2019-04-26T02:16:37.398Z,101559.13
2019-04-26T02:19:07.301Z,101562.48
2019-04-26T02:21:42.731Z,101557.45
2019-04-26T02:24:17.313Z,101564.55
2019-04-26T02:26:48.091Z,101559.23
2019-04-26T02:29:20.730Z,101559.53
2019-04-26T02:31:55.287Z,101564.95
2019-04-26T02:34:27.954Z,101563.35
2019-04-26T02:36:59.867Z,101573.45
2019-04-26T02:39:35.336Z,101573.33
2019-04-26T02:42:07.801Z,101566.80
2019-04-26T02:44:46.344Z,101561.99
2019-04-26T02:47:44.118Z,101564.72
2019-04-26T02:50:19.789Z,101561.66
2019-04-26T02:53:17.868Z,101564.91
2019-04-26T02:56:15.499Z,101564.52
2019-04-26T02:59:07.998Z,101557.95
2019-04-26T03:01:38.753Z,101555.29
2019-04-26T03:04:08.679Z,101553.72
2019-04-26T03:06:41.229Z,101550.22
2019-04-26T03:09:13.329Z,101549.05
2019-04-26T03:11:45.872Z,101548.23
2019-04-26T03:14:37.067Z,101550.84
2019-04-26T03:17:26.576Z,101548.98
2019-04-26T03:20:02.437Z,101546.98
2019-04-26T03:23:21.512Z,101536.10
2019-04-26T03:26:43.367Z,101535.58
2019-04-26T03:29:32.897Z,101536.73
2019-04-26T03:32:49.391Z,101533.36
2019-04-26T03:35:28.963Z,101529.98
2019-04-26T03:38:17.287Z,101531.95
2019-04-26T03:41:12.894Z,101525.08
2019-04-26T03:43:55.291Z,101524.24
2019-04-26T03:46:49.898Z,101517.11
2019-04-26T03:50:02.653Z,101524.55
2019-04-26T03:52:57.994Z,101528.14
2019-04-26T03:56:23.612Z,101533.97
2019-04-26T03:59:14.560Z,101525.01
2019-04-26T04:02:06.750Z,101524.22
2019-04-26T04:04:46.725Z,101519.34
2019-04-26T04:07:35.594Z,101522.81
2019-04-26T04:09:54.461Z,101519.05
2019-04-26T04:12:49.058Z,101520.23
2019-04-26T04:15:24.915Z,101516.70
2019-04-26T04:18:00.746Z,101524.15
2019-04-26T04:21:11.285Z,101516.52
2019-04-26T04:23:57.389Z,101515.16
2019-04-26T04:26:39.718Z,101520.41
2019-04-26T04:29:55.674Z,101520.94
2019-04-26T04:32:51.728Z,101517.67
2019-04-26T04:35:24.127Z,101515.73
2019-04-26T04:38:09.286Z,101515.03
2019-04-26T04:41:11.564Z,101516.55
2019-04-26T04:43:49.447Z,101506.13
2019-04-26T04:46:37.785Z,101502.47
2019-04-26T04:49:30.668Z,101497.72
2019-04-26T04:52:31.012Z,101498.25
2019-04-26T04:55:08.810Z,101494.37
2019-04-26T04:58:10.453Z,101493.94
2019-04-26T05:01:22.358Z,101487.22
2019-04-26T05:04:06.154Z,101489.49
2019-04-26T05:07:10.334Z,101492.15
2019-04-26T05:09:45.714Z,101487.23
2019-04-26T05:12:22.609Z,101488.37
2019-04-26T05:15:54.947Z,101485.70
2019-04-26T05:18:54.827Z,101483.59
2019-04-26T05:21:39.527Z,101489.52
2019-04-26T05:24:34.764Z,101476.18
2019-04-26T05:27:49.640Z,101465.90
2019-04-26T05:31:17.677Z,101461.98
2019-04-26T05:34:10.422Z,101459.17
2019-04-26T05:37:15.512Z,101462.23
2019-04-26T05:39:53.446Z,101461.88
2019-04-26T05:42:51.635Z,101463.84
2019-04-26T05:46:11.195Z,101462.09
2019-04-26T05:49:16.760Z,101466.58
2019-04-26T05:52:21.886Z,101462.97
2019-04-26T05:55:29.476Z,101464.95
2019-04-26T05:58:26.438Z,101463.64
2019-04-26T06:01:28.025Z,101466.77
2019-04-26T06:04:39.441Z,101462.53
2019-04-26T06:07:37.108Z,101453.23
2019-04-26T06:10:22.647Z,101459.42
2019-04-26T06:13:02.952Z,101460.07
2019-04-26T06:15:52.773Z,101461.31
2019-04-26T06:18:53.110Z,101463.91
2019-04-26T06:21:49.167Z,101457.34
2019-04-26T06:24:41.214Z,101451.87
2019-04-26T06:27:48.805Z,101453.77
2019-04-26T06:30:31.165Z,101443.91
2019-04-26T06:33:29.450Z,101441.13
2019-04-26T06:36:04.391Z,101447.49
2019-04-26T06:39:30.099Z,101436.36
2019-04-26T06:42:27.243Z,101438.09
2019-04-26T06:45:32.529Z,101428.55
2019-04-26T06:48:15.953Z,101422.78
2019-04-26T06:50:52.421Z,101414.37
2019-04-26T06:53:59.222Z,101415.73
2019-04-26T06:56:57.116Z,101409.15
2019-04-26T07:00:08.739Z,101408.39
2019-04-26T07:03:03.785Z,101404.16
2019-04-26T07:05:36.351Z,101400.75
2019-04-26T07:08:40.468Z,101399.07
2019-04-26T07:12:15.629Z,101403.39
2019-04-26T07:15:03.716Z,101397.82
2019-04-26T07:17:46.657Z,101401.93
2019-04-26T07:20:36.486Z,101393.42
2019-04-26T07:23:34.830Z,101397.65
2019-04-26T07:26:43.410Z,101399.81
2019-04-26T07:29:30.573Z,101390.42
2019-04-26T07:32:17.722Z,101399.19
2019-04-26T07:35:04.709Z,101388.99
2019-04-26T07:38:12.043Z,101382.47
2019-04-26T07:41:23.259Z,101379.94
2019-04-26T07:44:22.972Z,101369.63
2019-04-26T07:47:34.871Z,101367.94
2019-04-26T07:50:43.948Z,101367.42
2019-04-26T07:53:33.777Z,101366.08
2019-04-26T07:56:16.188Z,101364.83
2019-04-26T07:59:29.830Z,101363.81
2019-04-26T08:02:32.976Z,101373.22
2019-04-26T08:05:15.261Z,101367.63
2019-04-26T08:07:48.330Z,101358.73
2019-04-26T08:10:21.257Z,101362.63
2019-04-26T08:12:57.371Z,101360.38
2019-04-26T08:15:42.373Z,101350.45
2019-04-26T08:18:21.155Z,101347.34
2019-04-26T08:20:54.706Z,101341.84
2019-04-26T08:23:39.487Z,101333.64
2019-04-26T08:26:07.630Z,101338.30
2019-04-26T08:28:39.343Z,101331.05
2019-04-26T08:31:15.456Z,101334.24
2019-04-26T08:33:49.890Z,101333.49
2019-04-26T08:36:23.194Z,101329.96
2019-04-26T08:38:54.036Z,101326.81
2019-04-26T08:41:25.212Z,101322.30
2019-04-26T08:44:14.340Z,101312.20
2019-04-26T08:46:57.059Z,101312.48
2019-04-26T08:49:44.485Z,101307.13
2019-04-26T08:52:16.769Z,101302.59
2019-04-26T08:54:55.906Z,101293.70
2019-04-26T08:57:29.236Z,101295.33
2019-04-26T09:00:01.790Z,101292.08
2019-04-26T09:03:11.632Z,101288.06
2019-04-26T09:06:01.757Z,101289.67
2019-04-26T09:08:39.366Z,101294.97
2019-04-26T09:11:08.926Z,101295.64
2019-04-26T09:13:42.545Z,101287.59
2019-04-26T09:16:14.763Z,101286.97
2019-04-26T09:18:52.522Z,101286.83
2019-04-26T09:21:17.490Z,101285.00
2019-04-26T09:24:04.805Z,101287.00
2019-04-26T09:26:37.464Z,101280.38
2019-04-26T09:29:26.321Z,101271.64
2019-04-26T09:31:58.582Z,101273.27
2019-04-26T09:34:41.226Z,101278.38
2019-04-26T09:37:11.214Z,101284.36
2019-04-26T09:39:42.068Z,101280.98
2019-04-26T09:42:23.346Z,101282.38
2019-04-26T09:45:29.801Z,101283.16
2019-04-26T09:48:03.050Z,101267.89
2019-04-26T09:50:41.675Z,101268.86
2019-04-26T09:53:11.070Z,101261.81
2019-04-26T09:55:40.540Z,101256.70
2019-04-26T09:58:10.036Z,101255.17
2019-04-26T10:00:39.480Z,101256.95
2019-04-26T10:03:09.747Z,101252.65
2019-04-26T10:05:40.057Z,101250.66
2019-04-26T10:08:12.990Z,101245.58
2019-04-26T10:10:40.516Z,101243.55
2019-04-26T10:13:27.092Z,101250.02
2019-04-26T10:16:33.489Z,101249.16
2019-04-26T10:19:28.069Z,101246.09
2019-04-26T10:21:57.451Z,101239.25
2019-04-26T10:24:26.787Z,101241.47
2019-04-26T10:26:59.242Z,101228.50
2019-04-26T10:29:27.138Z,101229.72
2019-04-26T10:31:56.457Z,101235.52
2019-04-26T10:34:25.807Z,101232.22
2019-04-26T10:36:56.991Z,101226.19
2019-04-26T10:39:28.530Z,101226.36
2019-04-26T10:41:57.212Z,101230.49
2019-04-26T10:44:26.541Z,101226.66
2019-04-26T10:46:56.008Z,101219.13
2019-04-26T10:49:45.590Z,101211.39
2019-04-26T10:52:32.399Z,101208.20
2019-04-26T10:55:24.474Z,101203.50
2019-04-26T10:57:56.119Z,101208.54
2019-04-26T11:00:31.653Z,101214.21
2019-04-26T11:03:04.472Z,101210.45
2019-04-26T11:05:32.233Z,101217.16
2019-04-26T11:08:01.542Z,101201.04
2019-04-26T11:10:31.893Z,101205.67
2019-04-26T11:13:01.217Z,101204.62
2019-04-26T11:15:32.663Z,101203.67
2019-04-26T11:18:01.881Z,101198.44
2019-04-26T11:20:31.326Z,101206.25
2019-04-26T11:23:00.632Z,101208.05
2019-04-26T11:25:29.888Z,101202.94
2019-04-26T11:27:59.222Z,101202.30
2019-04-26T11:30:28.632Z,101203.89
2019-04-26T11:32:57.899Z,101206.67
2019-04-26T11:35:29.282Z,101205.68
2019-04-26T11:37:58.293Z,101208.86
2019-04-26T11:40:28.190Z,101214.19
2019-04-26T11:42:57.532Z,101217.25
2019-04-26T11:45:26.910Z,101214.77
2019-04-26T11:47:56.720Z,101213.41
2019-04-26T11:50:26.032Z,101211.85
2019-04-26T11:52:55.426Z,101208.52
2019-04-26T11:55:25.298Z,101204.01
2019-04-26T11:57:55.747Z,101204.72
2019-04-26T12:00:32.876Z,101205.36
2019-04-26T12:03:02.202Z,101206.03
2019-04-26T12:05:56.569Z,101204.31
2019-04-26T12:08:31.466Z,101201.66
2019-04-26T12:11:00.792Z,101203.51
2019-04-26T12:13:30.133Z,101198.27
2019-04-26T12:15:59.417Z,101204.27
2019-04-26T12:18:28.897Z,101197.83
2019-04-26T12:21:01.083Z,101195.89
2019-04-26T12:23:29.455Z,101195.03
2019-04-26T12:25:58.786Z,101193.70
2019-04-26T12:28:28.101Z,101196.04
2019-04-26T12:30:58.452Z,101190.07
2019-04-26T12:33:28.529Z,101188.14
2019-04-26T12:35:57.887Z,101182.83
2019-04-26T12:38:28.599Z,101177.47
2019-04-26T12:40:58.235Z,101180.23
2019-04-26T12:43:27.577Z,101176.59
2019-04-26T12:46:14.282Z,101171.56
2019-04-26T12:48:46.033Z,101162.44
2019-04-26T12:51:14.713Z,101167.05
2019-04-26T12:53:44.075Z,101160.16
2019-04-26T12:56:13.336Z,101161.00
2019-04-26T12:58:45.725Z,101162.55
2019-04-26T13:01:14.255Z,101173.62
2019-04-26T13:03:45.592Z,101166.59
2019-04-26T13:06:15.416Z,101171.84
2019-04-26T13:08:47.190Z,101165.64
2019-04-26T13:11:48.675Z,101163.48
2019-04-26T13:14:23.719Z,101160.65
2019-04-26T13:17:02.214Z,101153.02
2019-04-26T13:19:31.705Z,101147.41
2019-04-26T13:22:01.025Z,101146.09
2019-04-26T13:24:30.396Z,101147.95
2019-04-26T13:26:59.752Z,101141.88
2019-04-26T13:29:31.207Z,101142.21
2019-04-26T13:32:00.120Z,101138.09
2019-04-26T13:34:29.422Z,101131.70
2019-04-26T13:36:59.134Z,101133.50
2019-04-26T13:39:28.511Z,101134.59
2019-04-26T13:42:04.634Z,101141.73
2019-04-26T13:44:46.535Z,101126.78
2019-04-26T13:47:30.660Z,101134.46
2019-04-26T13:50:13.038Z,101134.12
2019-04-26T13:52:42.352Z,101137.47
2019-04-26T13:55:11.722Z,101135.39
2019-04-26T13:57:44.462Z,101129.09
2019-04-26T14:00:14.159Z,101138.16
2019-04-26T14:02:43.489Z,101137.30
2019-04-26T14:05:15.217Z,101134.92
2019-04-26T14:07:43.960Z,101131.08
2019-04-26T14:10:13.364Z,101132.81
2019-04-26T14:12:46.134Z,101141.82
2019-04-26T14:15:13.782Z,101144.50
2019-04-26T14:17:43.100Z,101139.19
2019-04-26T14:20:12.585Z,101145.34
2019-04-26T14:22:49.303Z,101150.38
2019-04-26T14:25:20.957Z,101153.69
2019-04-26T14:27:52.107Z,101141.56
2019-04-26T14:30:21.436Z,101149.47
2019-04-26T14:32:53.158Z,101141.08
2019-04-26T14:35:21.807Z,101138.16
2019-04-26T14:37:51.616Z,101121.25
2019-04-26T14:40:21.038Z,101131.45
2019-04-26T14:42:50.322Z,101125.88
2019-04-26T14:45:23.673Z,101127.01
2019-04-26T14:47:50.785Z,101119.53
2019-04-26T14:50:20.071Z,101120.41
2019-04-26T14:52:49.391Z,101126.14
2019-04-26T14:55:21.204Z,101122.09
2019-04-26T14:57:51.355Z,101120.95
2019-04-26T15:00:26.313Z,101107.69
2019-04-26T15:03:17.231Z,101113.66
2019-04-26T15:05:57.007Z,101117.17
2019-04-26T15:08:26.271Z,101114.30
2019-04-26T15:11:00.892Z,101116.75
2019-04-26T15:13:26.872Z,101123.35
2019-04-26T15:15:56.440Z,101116.60
2019-04-26T15:18:29.312Z,101116.91
2019-04-26T15:20:58.355Z,101121.81
2019-04-26T15:23:27.791Z,101114.09
2019-04-26T15:25:58.666Z,101124.59
2019-04-26T15:28:28.126Z,101130.41
2019-04-26T15:30:57.420Z,101133.19
2019-04-26T15:33:26.732Z,101126.32
2019-04-26T15:35:56.292Z,101129.16
2019-04-26T15:38:25.792Z,101142.75
2019-04-26T15:41:20.085Z,101134.41
2019-04-26T15:44:11.377Z,101130.50
2019-04-26T15:46:57.555Z,101127.20
2019-04-26T15:49:38.766Z,101119.64
2019-04-26T15:52:08.131Z,101112.20
2019-04-26T15:54:37.448Z,101105.84
2019-04-26T15:57:06.883Z,101108.90
2019-04-26T15:59:36.193Z,101110.22
2019-04-26T16:02:05.654Z,101110.71
2019-04-26T16:04:35.029Z,101106.57
2019-04-26T16:07:04.365Z,101101.28
2019-04-26T16:09:33.735Z,101099.80
2019-04-26T16:12:03.748Z,101107.16
2019-04-26T16:14:36.595Z,101101.00
2019-04-26T16:17:06.540Z,101094.64
2019-04-26T16:19:35.336Z,101086.28
2019-04-26T16:22:04.752Z,101087.13
2019-04-26T16:24:34.499Z,101085.05
2019-04-26T16:27:04.096Z,101089.04
2019-04-26T16:29:58.382Z,101078.25
2019-04-26T16:32:58.996Z,101073.59
2019-04-26T16:35:28.327Z,101072.66
2019-04-26T16:40:32.485Z,101066.83
2019-04-26T16:43:02.166Z,101068.63
2019-04-26T16:45:32.901Z,101073.40
2019-04-26T16:48:02.205Z,101067.05
2019-04-26T16:50:37.243Z,101076.53
2019-04-26T16:53:02.628Z,101077.25
2019-04-26T16:55:35.493Z,101079.53
2019-04-26T16:58:04.479Z,101079.70
2019-04-26T17:00:30.713Z,101075.41
2019-04-26T17:00:50.128Z,101075.56
2019-04-26T17:03:07.864Z,101078.45
2019-04-26T17:05:47.552Z,101087.39
2019-04-26T17:08:10.296Z,101090.47
2019-04-26T17:10:38.484Z,101089.45
2019-04-26T17:13:07.823Z,101079.52
2019-04-26T17:15:37.289Z,101087.81
2019-04-26T17:18:06.666Z,101085.38
2019-04-26T17:20:36.034Z,101090.11
2019-04-26T17:23:25.419Z,101098.97
2019-04-26T17:26:09.640Z,101096.20
2019-04-26T17:28:39.237Z,101098.16
2019-04-26T17:31:08.543Z,101089.53
2019-04-26T17:33:37.869Z,101084.13
2019-04-26T17:36:07.143Z,101093.84
2019-04-26T17:38:39.326Z,101093.91
2019-04-26T17:41:10.913Z,101095.84
2019-04-26T17:43:42.205Z,101098.86
2019-04-26T17:46:10.654Z,101095.28
2019-04-26T17:48:40.890Z,101087.86
2019-04-26T17:51:18.415Z,101086.77
2019-04-26T17:53:43.988Z,101083.27
2019-04-26T17:56:13.457Z,101083.27
2019-04-26T17:58:51.533Z,101084.10
2019-04-26T18:01:39.115Z,101080.34
2019-04-26T18:03:51.270Z,101083.71
2019-04-26T18:06:28.870Z,101083.22
2019-04-26T18:08:54.218Z,101088.73
2019-04-26T18:11:19.947Z,101094.02
2019-04-26T18:13:51.214Z,101099.34
2019-04-26T18:16:22.023Z,101098.31
2019-04-26T18:19:10.400Z,101098.33
2019-04-26T18:21:56.535Z,101095.06
2019-04-26T18:24:21.451Z,101089.85
2019-04-26T18:26:54.036Z,101088.52
2019-04-26T18:29:23.743Z,101087.22
2019-04-26T18:31:53.601Z,101087.23
2019-04-26T18:34:23.226Z,101086.09
2019-04-26T18:36:52.595Z,101089.94
2019-04-26T18:39:26.082Z,101085.20
2019-04-26T18:41:53.642Z,101084.69
2019-04-26T18:44:35.848Z,101085.50
2019-04-26T18:47:04.576Z,101080.55
2019-04-26T18:49:33.870Z,101079.77
2019-04-26T18:52:03.757Z,101083.12
2019-04-26T18:54:47.846Z,101088.69
2019-04-26T18:57:17.241Z,101090.90
2019-04-26T18:59:51.190Z,101094.77
2019-04-26T19:02:19.791Z,101090.94
2019-04-26T19:04:49.650Z,101095.38
2019-04-26T19:07:31.271Z,101095.33
2019-04-26T19:10:02.112Z,101096.97
2019-04-26T19:12:23.299Z,101098.09
2019-04-26T19:15:09.247Z,101111.33
2019-04-26T19:17:52.558Z,101113.04
2019-04-26T19:20:30.008Z,101118.03
2019-04-26T19:23:00.916Z,101126.08
2019-04-26T19:25:35.645Z,101129.13
2019-04-26T19:28:04.276Z,101132.70
2019-04-26T19:30:32.866Z,101135.48
2019-04-26T19:33:02.229Z,101132.17
2019-04-26T19:35:32.877Z,101131.64
2019-04-26T19:38:03.233Z,101139.09
2019-04-26T19:40:32.567Z,101145.72
2019-04-26T19:43:07.838Z,101150.41
2019-04-26T19:45:46.137Z,101160.33
2019-04-26T19:48:22.739Z,101173.00
2019-04-26T19:51:27.129Z,101178.25
2019-04-26T19:54:09.543Z,101174.11
2019-04-26T19:57:01.070Z,101169.14
2019-04-26T19:59:33.220Z,101174.10
2019-04-26T20:01:59.246Z,101180.73
2019-04-26T20:04:30.832Z,101169.45
2019-04-26T20:07:01.253Z,101168.07
2019-04-26T20:09:31.904Z,101177.98
2019-04-26T20:12:02.586Z,101181.31
2019-04-26T20:14:44.734Z,101174.72
2019-04-26T20:17:03.084Z,101184.64
2019-04-26T20:19:37.029Z,101184.06
2019-04-26T20:22:03.615Z,101173.91
2019-04-26T20:24:32.951Z,101162.59
2019-04-26T20:27:03.502Z,101178.03
2019-04-26T20:29:33.320Z,101181.33
2019-04-26T20:32:24.396Z,101177.18
2019-04-26T20:35:12.965Z,101166.19
2019-04-26T20:37:41.834Z,101165.06
2019-04-26T20:40:20.239Z,101174.98
2019-04-26T20:42:43.148Z,101178.58
2019-04-26T20:45:16.578Z,101171.97
2019-04-26T20:47:46.768Z,101165.62
2019-04-26T20:50:14.864Z,101163.70
2019-04-26T20:52:45.481Z,101163.97
2019-04-26T20:55:15.085Z,101155.73
2019-04-26T20:57:45.015Z,101165.36
2019-04-26T21:00:14.652Z,101171.41
2019-04-26T21:02:44.039Z,101169.77
2019-04-26T21:05:14.777Z,101162.86
2019-04-26T21:07:49.240Z,101159.02
2019-04-26T21:10:21.715Z,101163.14
2019-04-26T21:12:47.553Z,101167.30
2019-04-26T21:15:20.204Z,101162.34
2019-04-26T21:17:48.461Z,101155.16
2019-04-26T21:20:17.826Z,101164.52
2019-04-26T21:22:47.121Z,101164.53
2019-04-26T21:25:23.235Z,101148.81
2019-04-26T21:27:58.077Z,101142.77
2019-04-26T21:30:47.695Z,101139.75
2019-04-26T21:33:39.020Z,101136.43
2019-04-26T21:36:36.261Z,101144.70
2019-04-26T21:39:20.692Z,101152.42
2019-04-26T21:41:50.351Z,101143.88
2019-04-26T21:44:19.685Z,101139.19
2019-04-26T21:46:49.665Z,101132.04
2019-04-26T21:49:22.076Z,101118.56
2019-04-26T21:51:52.630Z,101119.94
2019-04-26T21:54:24.948Z,101115.81
2019-04-26T21:56:53.723Z,101111.37
2019-04-26T21:59:24.377Z,101109.19
2019-04-26T22:01:59.046Z,101120.48
2019-04-26T22:04:28.713Z,101103.42
2019-04-26T22:07:00.039Z,101098.98
2019-04-26T22:09:55.496Z,101099.55
2019-04-26T22:12:27.278Z,101103.39
2019-04-26T22:15:13.816Z,101099.28
2019-04-26T22:17:45.104Z,101098.98
2019-04-26T22:20:29.494Z,101088.27
2019-04-26T22:23:18.412Z,101093.48
2019-04-26T22:25:50.676Z,101093.20
2019-04-26T22:28:20.015Z,101096.76
2019-04-26T22:30:49.339Z,101097.32
2019-04-26T22:33:18.773Z,101103.10
2019-04-26T22:35:50.506Z,101101.97
2019-04-26T22:38:23.700Z,101102.52
2019-04-26T22:40:53.239Z,101115.16
2019-04-26T22:43:36.781Z,101130.01
2019-04-26T22:46:31.318Z,101137.18
2019-04-26T22:49:03.734Z,101122.02
2019-04-26T22:51:35.406Z,101114.02
2019-04-26T22:54:06.241Z,101118.65
2019-04-26T22:56:37.061Z,101113.69
2019-04-26T22:59:07.684Z,101108.47
2019-04-26T23:01:39.223Z,101107.88
2019-04-26T23:04:07.317Z,101105.42
2019-04-26T23:06:36.601Z,101106.77
2019-04-26T23:09:11.658Z,101118.62
2019-04-26T23:11:43.950Z,101104.83
2019-04-26T23:14:27.238Z,101092.42
2019-04-26T23:17:34.913Z,101097.13
2019-04-26T23:20:20.735Z,101094.33
2019-04-26T23:22:50.072Z,101077.78
2019-04-26T23:25:19.333Z,101074.47
2019-04-26T23:27:50.501Z,101079.42
2019-04-26T23:30:19.742Z,101082.47
2019-04-26T23:32:52.197Z,101068.95
2019-04-26T23:35:20.231Z,101053.81
2019-04-26T23:37:49.776Z,101057.13
2019-04-26T23:40:20.744Z,101058.52
2019-04-26T23:42:51.540Z,101052.17
2019-04-26T23:45:23.026Z,101042.23
2019-04-26T23:47:53.029Z,101041.67
2019-04-26T23:50:25.622Z,101021.84
2019-04-26T23:52:53.434Z,101013.02
2019-04-26T23:55:23.598Z,101010.27
2019-04-26T23:57:53.518Z,100998.15
